Terminal Aerodrome Forecast
Issued by NWS

Home | Current Version | Previous Version | Text Only | Print | Product List | Glossary On
Versions: 1 2 3 4 5 6 7 8 9 10 11 12 13 14 15 16 17 18 19 20 21 22 23 24 25 26 27 28 29 30 31 32 33 34 35 36 37 38 39 40
000
FTUS41 KOKX 221725
TAFTEB
TAF
KTEB 221725Z 2218/2318 07007KT 1SM BR OVC005
      TEMPO 2218/2222 4SM BR SCT005 BKN008
     FM222300 05011G17KT 5SM BR OVC010
     FM230300 04014G23KT 6SM BR OVC010
     FM230900 04018G28KT 5SM -RA BR OVC010
     FM231500 03028G40KT 3SM RA BR OVC010=

USA.gov is the U.S. government's official web portal to all federal, state and local government web resources and services.